Time;durP1;ratioP1;P1;durP2;ratioP2;P2;SDS_P1;SDS_P2;PMS_P1;PMS_P2;Temp;Humidity;BMP_temperature;BMP_pressure;BME280_temperature;BME280_humidity;BME280_pressure;Samples;Min_cycle;Max_cycle;Signal;HPM_P1;HPM_P2
2023/04/24 00:01:47;;;;;;;21.48;13.90;;;;;;;;;;5057209;28;20391;-60
2023/04/24 00:04:14;;;;;;;24.67;14.65;;;;;;;;;;5057486;28;20029;-60
2023/04/24 00:06:42;;;;;;;21.95;14.65;;;;;;;;;;5057103;28;20025;-60
2023/04/24 00:09:09;;;;;;;22.42;14.18;;;;;;;;;;5057074;28;20033;-60
2023/04/24 00:11:35;;;;;;;23.55;14.23;;;;;;;;;;5057300;28;20501;-60
2023/04/24 00:14:00;;;;;;;22.83;14.40;;;;;;;;;;5056961;28;20025;-60
2023/04/24 00:16:26;;;;;;;23.70;14.55;;;;;;;;;;5059904;28;20032;-58
2023/04/24 00:18:52;;;;;;;26.45;14.60;;;;;;;;;;5076721;28;20029;-59
2023/04/24 00:21:17;;;;;;;23.67;14.25;;;;;;;;;;5076664;28;20089;-59
2023/04/24 00:23:43;;;;;;;26.30;15.20;;;;;;;;;;5076705;28;20044;-59
2023/04/24 00:26:09;;;;;;;23.33;13.75;;;;;;;;;;5076713;28;20039;-59
2023/04/24 00:28:34;;;;;;;21.10;13.63;;;;;;;;;;5076908;28;20039;-59
2023/04/24 00:30:59;;;;;;;19.20;12.07;;;;;;;;;;5076325;28;20505;-64
2023/04/24 00:33:25;;;;;;;17.55;11.32;;;;;;;;;;5058789;28;20013;-64
2023/04/24 00:35:50;;;;;;;17.88;11.57;;;;;;;;;;5076445;28;20032;-64
2023/04/24 00:38:16;;;;;;;19.77;12.68;;;;;;;;;;5058590;28;20485;-58
2023/04/24 00:40:41;;;;;;;17.58;12.10;;;;;;;;;;5076328;28;20471;-58
2023/04/24 00:43:07;;;;;;;17.67;12.13;;;;;;;;;;5058220;28;20478;-59
2023/04/24 00:45:32;;;;;;;20.45;11.88;;;;;;;;;;5075901;28;20021;-66
2023/04/24 00:47:58;;;;;;;19.05;11.43;;;;;;;;;;5075771;28;20040;-66
2023/04/24 00:50:23;;;;;;;18.50;11.77;;;;;;;;;;5076153;28;20127;-59
2023/04/24 00:52:50;;;;;;;17.98;11.35;;;;;;;;;;5058263;28;20024;-66
2023/04/24 00:55:15;;;;;;;20.05;11.63;;;;;;;;;;5075921;28;20578;-59
2023/04/24 00:57:41;;;;;;;17.08;12.00;;;;;;;;;;5057993;28;20111;-59
2023/04/24 01:00:11;;;;;;;17.70;10.88;;;;;;;;;;5076326;28;20028;-64
2023/04/24 01:02:43;;;;;;;17.85;11.68;;;;;;;;;;5076109;28;20096;-65
2023/04/24 01:05:09;;;;;;;18.48;10.98;;;;;;;;;;5076001;28;20070;-65
2023/04/24 01:07:35;;;;;;;19.95;11.05;;;;;;;;;;5075791;28;20382;-64
2023/04/24 01:10:00;;;;;;;17.88;10.85;;;;;;;;;;5075911;28;20037;-65
2023/04/24 01:12:26;;;;;;;15.38;11.18;;;;;;;;;;5058291;28;20077;-67
2023/04/24 01:14:51;;;;;;;18.38;11.65;;;;;;;;;;5058046;28;20012;-67
2023/04/24 01:17:17;;;;;;;19.23;11.88;;;;;;;;;;5065501;28;20482;-60
2023/04/24 01:19:44;;;;;;;15.90;10.65;;;;;;;;;;5055655;28;20103;-60
2023/04/24 01:22:13;;;;;;;16.00;10.73;;;;;;;;;;5055858;28;20459;-60
2023/04/24 01:24:38;;;;;;;18.38;10.57;;;;;;;;;;5054556;28;20037;-60
2023/04/24 01:27:04;;;;;;;19.40;11.32;;;;;;;;;;5054547;28;20044;-64
2023/04/24 01:29:29;;;;;;;14.65;10.05;;;;;;;;;;5054179;28;20361;-60
2023/04/24 01:31:55;;;;;;;13.13;9.40;;;;;;;;;;5055388;28;20035;-60
2023/04/24 01:34:20;;;;;;;14.45;9.75;;;;;;;;;;5055293;28;20047;-60
2023/04/24 01:36:46;;;;;;;14.77;9.73;;;;;;;;;;5056513;28;20382;-60
2023/04/24 01:39:11;;;;;;;12.73;9.50;;;;;;;;;;5074488;28;20032;-60
2023/04/24 01:41:37;;;;;;;12.95;9.68;;;;;;;;;;5074450;28;20086;-68
2023/04/24 01:44:02;;;;;;;15.02;9.23;;;;;;;;;;5056513;28;20455;-68
2023/04/24 01:46:28;;;;;;;14.55;10.07;;;;;;;;;;5075252;28;20024;-68
2023/04/24 01:48:54;;;;;;;16.23;10.10;;;;;;;;;;5075011;28;20131;-59
2023/04/24 01:51:19;;;;;;;11.38;9.27;;;;;;;;;;5040558;28;20465;-59
2023/04/24 01:53:45;;;;;;;10.85;9.30;;;;;;;;;;5074819;28;20052;-59
2023/04/24 01:56:11;;;;;;;13.07;9.18;;;;;;;;;;5057143;28;20066;-59
2023/04/24 01:58:36;;;;;;;10.50;8.80;;;;;;;;;;5053109;28;20025;-60
2023/04/24 02:01:01;;;;;;;14.05;8.75;;;;;;;;;;5055075;28;20382;-59
2023/04/24 02:03:27;;;;;;;9.88;8.68;;;;;;;;;;5054634;28;20542;-58
2023/04/24 02:05:53;;;;;;;10.93;8.48;;;;;;;;;;5053784;28;20025;-59
2023/04/24 02:08:18;;;;;;;14.18;9.40;;;;;;;;;;5036936;28;20443;-59
2023/04/24 02:10:44;;;;;;;11.98;8.40;;;;;;;;;;5053301;28;20029;-60
2023/04/24 02:13:10;;;;;;;11.68;9.18;;;;;;;;;;5053528;28;20099;-60
2023/04/24 02:15:35;;;;;;;10.95;8.55;;;;;;;;;;5054637;28;20052;-60
2023/04/24 02:18:08;;;;;;;13.43;9.13;;;;;;;;;;5054906;28;20056;-61
2023/04/24 02:20:35;;;;;;;13.27;8.48;;;;;;;;;;5054639;28;20038;-59
2023/04/24 02:23:01;;;;;;;12.05;8.77;;;;;;;;;;5054475;28;20041;-59
2023/04/24 02:25:26;;;;;;;13.80;8.60;;;;;;;;;;5054276;28;20032;-59
2023/04/24 02:27:55;;;;;;;12.32;8.43;;;;;;;;;;5052973;28;20033;-59
2023/04/24 02:30:20;;;;;;;12.27;8.38;;;;;;;;;;5054045;28;20021;-59
2023/04/24 02:32:46;;;;;;;10.75;8.60;;;;;;;;;;5053241;28;20027;-64
2023/04/24 02:35:11;;;;;;;13.32;8.30;;;;;;;;;;5056261;28;20470;-65
2023/04/24 02:37:36;;;;;;;12.25;8.85;;;;;;;;;;5056577;28;20112;-65
2023/04/24 02:40:02;;;;;;;12.32;8.57;;;;;;;;;;5074170;28;20363;-66
2023/04/24 02:42:28;;;;;;;12.57;7.65;;;;;;;;;;5039336;28;20466;-66
2023/04/24 02:44:53;;;;;;;11.10;8.23;;;;;;;;;;5074075;28;20051;-67
2023/04/24 02:47:18;;;;;;;10.95;8.05;;;;;;;;;;5055752;28;20827;-64
2023/04/24 02:49:45;;;;;;;9.40;7.60;;;;;;;;;;5073491;28;20056;-65
2023/04/24 02:52:10;;;;;;;10.70;8.02;;;;;;;;;;5073745;28;20025;-66
2023/04/24 02:54:36;;;;;;;9.30;7.40;;;;;;;;;;5072850;28;20466;-66
2023/04/24 02:57:01;;;;;;;13.93;7.93;;;;;;;;;;5072719;28;20024;-66
2023/04/24 02:59:28;;;;;;;11.52;7.78;;;;;;;;;;5055714;28;20025;-65
2023/04/24 03:01:54;;;;;;;11.45;7.97;;;;;;;;;;5055733;28;20068;-67
2023/04/24 03:04:20;;;;;;;10.00;7.50;;;;;;;;;;5073614;28;20067;-67
2023/04/24 03:06:45;;;;;;;10.00;7.20;;;;;;;;;;5055994;28;20039;-67
2023/04/24 03:09:11;;;;;;;9.25;7.45;;;;;;;;;;5073998;28;20021;-59
2023/04/24 03:11:36;;;;;;;9.68;7.60;;;;;;;;;;5073782;28;20033;-60
2023/04/24 03:14:02;;;;;;;14.30;8.13;;;;;;;;;;5054895;28;20033;-60
2023/04/24 03:16:27;;;;;;;10.10;7.43;;;;;;;;;;5053958;28;20110;-60
2023/04/24 03:18:54;;;;;;;14.02;7.95;;;;;;;;;;5053073;28;20613;-60
2023/04/24 03:21:20;;;;;;;9.10;7.15;;;;;;;;;;5052578;28;20119;-60
2023/04/24 03:23:45;;;;;;;12.48;7.97;;;;;;;;;;5052510;28;20032;-60
2023/04/24 03:26:10;;;;;;;12.55;7.68;;;;;;;;;;5052660;28;20033;-60
2023/04/24 03:28:42;;;;;;;10.60;7.47;;;;;;;;;;5052416;28;20457;-60
2023/04/24 03:31:07;;;;;;;10.68;7.03;;;;;;;;;;5052829;28;20128;-60
2023/04/24 03:33:35;;;;;;;15.30;7.65;;;;;;;;;;5052203;28;20021;-60
2023/04/24 03:36:01;;;;;;;12.07;8.05;;;;;;;;;;5052331;28;20036;-60
2023/04/24 03:38:34;;;;;;;13.23;10.02;;;;;;;;;;5053586;28;20033;-61
2023/04/24 03:41:08;;;;;;;21.02;14.27;;;;;;;;;;5053697;28;20033;-57
2023/04/24 03:43:47;;;;;;;26.92;17.40;;;;;;;;;;5051876;28;20039;-57
2023/04/24 03:46:13;;;;;;;28.65;18.17;;;;;;;;;;5051947;28;20382;-58
2023/04/24 03:48:43;;;;;;;;;;;;;;;;;;5052406;28;20055;-57
2023/04/24 03:51:09;;;;;;;18.73;10.95;;;;;;;;;;5055565;28;19951;-57
2023/04/24 03:53:37;;;;;;;18.02;10.90;;;;;;;;;;5055545;28;20036;-58
2023/04/24 03:56:03;;;;;;;18.40;10.30;;;;;;;;;;5055031;28;20411;-58
2023/04/24 03:58:29;;;;;;;20.00;9.65;;;;;;;;;;5055275;28;20033;-57
2023/04/24 04:00:56;;;;;;;22.35;10.27;;;;;;;;;;5055346;28;20427;-58
2023/04/24 04:03:46;;;;;;;19.80;9.38;;;;;;;;;;5055505;28;20547;-58
2023/04/24 04:06:14;;;;;;;18.17;9.13;;;;;;;;;;5056656;28;20043;-57
2023/04/24 04:08:40;;;;;;;16.20;8.77;;;;;;;;;;5058982;28;20111;-59
2023/04/24 04:11:05;;;;;;;18.75;9.05;;;;;;;;;;5042705;28;20025;-59
2023/04/24 04:13:31;;;;;;;18.33;8.48;;;;;;;;;;5059125;28;20024;-59
2023/04/24 04:15:56;;;;;;;13.70;8.18;;;;;;;;;;5059074;28;20108;-59
2023/04/24 04:18:22;;;;;;;15.13;8.40;;;;;;;;;;5059087;28;20024;-59
2023/04/24 04:20:48;;;;;;;15.45;7.75;;;;;;;;;;5058796;28;20025;-60
2023/04/24 04:23:14;;;;;;;15.52;7.88;;;;;;;;;;5058749;28;20067;-60
2023/04/24 04:26:00;;;;;;;10.02;6.60;;;;;;;;;;5058824;28;20040;-68
2023/04/24 04:28:38;;;;;;;12.57;7.00;;;;;;;;;;5058408;28;20386;-65
2023/04/24 04:31:04;;;;;;;11.05;7.22;;;;;;;;;;5058880;28;20028;-64
2023/04/24 04:33:30;;;;;;;9.70;6.45;;;;;;;;;;5076334;28;20051;-62
2023/04/24 04:35:56;;;;;;;9.63;6.53;;;;;;;;;;5058305;28;20082;-64
2023/04/24 04:38:23;;;;;;;8.70;5.85;;;;;;;;;;5058370;28;20028;-64
2023/04/24 04:40:57;;;;;;;8.27;5.95;;;;;;;;;;5076218;28;20469;-64
2023/04/24 04:43:24;;;;;;;8.45;6.05;;;;;;;;;;5058484;28;20052;-64
2023/04/24 04:45:51;;;;;;;7.30;6.18;;;;;;;;;;5076553;28;20020;-64
2023/04/24 04:48:35;;;;;;;7.95;5.65;;;;;;;;;;5076718;28;20040;-64
2023/04/24 04:51:04;;;;;;;8.27;6.07;;;;;;;;;;5055118;28;20189;-64
2023/04/24 04:53:30;;;;;;;6.40;5.80;;;;;;;;;;5056885;28;20479;-64
2023/04/24 04:55:55;;;;;;;8.45;5.85;;;;;;;;;;5058237;28;20028;-58
2023/04/24 04:58:26;;;;;;;;;;;;;;;;;;5058170;28;20024;-58
2023/04/24 05:00:57;;;;;;;6.90;6.03;;;;;;;;;;5057990;28;19932;-59
2023/04/24 05:03:27;;;;;;;7.25;5.80;;;;;;;;;;5057837;28;20035;-58
2023/04/24 05:05:58;;;;;;;9.05;6.05;;;;;;;;;;5057690;28;20031;-57
2023/04/24 05:08:25;;;;;;;8.70;6.13;;;;;;;;;;5057707;28;20059;-57
2023/04/24 05:10:50;;;;;;;8.75;5.80;;;;;;;;;;5075964;28;20043;-57
2023/04/24 05:13:16;;;;;;;7.57;5.63;;;;;;;;;;5057385;28;20029;-57
2023/04/24 05:15:41;;;;;;;8.98;5.65;;;;;;;;;;5057842;28;20040;-57
2023/04/24 05:18:06;;;;;;;8.55;5.38;;;;;;;;;;5056519;28;20033;-57
2023/04/24 05:20:32;;;;;;;4.90;4.53;;;;;;;;;;5057766;28;20518;-57
2023/04/24 05:22:58;;;;;;;5.47;4.95;;;;;;;;;;5041465;28;20025;-57
2023/04/24 05:25:24;;;;;;;5.25;4.75;;;;;;;;;;5057459;28;20466;-57
2023/04/24 05:27:55;;;;;;;4.90;4.50;;;;;;;;;;5057740;28;20032;-57
2023/04/24 05:30:21;;;;;;;6.07;4.63;;;;;;;;;;5057500;28;20032;-56
2023/04/24 05:32:47;;;;;;;4.60;4.15;;;;;;;;;;5057185;28;20458;-56
2023/04/24 05:35:12;;;;;;;4.72;3.78;;;;;;;;;;5057300;28;20036;-56
2023/04/24 05:37:38;;;;;;;4.63;3.88;;;;;;;;;;5057511;28;20028;-56
2023/04/24 05:40:05;;;;;;;4.53;4.13;;;;;;;;;;5056876;28;20024;-56
2023/04/24 05:42:30;;;;;;;4.97;3.88;;;;;;;;;;5056656;28;20043;-56
2023/04/24 05:44:56;;;;;;;5.40;3.95;;;;;;;;;;5074632;28;20058;-62
2023/04/24 05:47:21;;;;;;;4.47;4.07;;;;;;;;;;5056817;28;20043;-61
2023/04/24 05:49:48;;;;;;;6.00;3.70;;;;;;;;;;5055949;28;20025;-61
2023/04/24 05:52:13;;;;;;;5.15;4.15;;;;;;;;;;5056568;28;20028;-62
2023/04/24 05:54:41;;;;;;;6.68;4.13;;;;;;;;;;5038601;28;20456;-61
2023/04/24 05:57:07;;;;;;;5.25;3.90;;;;;;;;;;5055315;28;20025;-62
2023/04/24 05:59:52;;;;;;;5.15;3.58;;;;;;;;;;5055781;28;20445;-62
2023/04/24 06:02:19;;;;;;;3.80;3.45;;;;;;;;;;5055423;28;20024;-62
2023/04/24 06:04:45;;;;;;;4.20;3.72;;;;;;;;;;5053523;28;20115;-62
2023/04/24 06:07:13;;;;;;;4.30;3.63;;;;;;;;;;5053435;28;20665;-61
2023/04/24 06:09:40;;;;;;;4.28;3.95;;;;;;;;;;5053396;28;20020;-62
2023/04/24 06:12:08;;;;;;;7.68;3.72;;;;;;;;;;5053494;28;20077;-61
2023/04/24 06:14:46;;;;;;;5.10;4.15;;;;;;;;;;5053414;28;20050;-62
2023/04/24 06:17:18;;;;;;;5.50;3.97;;;;;;;;;;5053637;28;20506;-62
2023/04/24 06:19:45;;;;;;;4.55;4.15;;;;;;;;;;5055423;28;20056;-62
2023/04/24 06:22:10;;;;;;;4.72;4.18;;;;;;;;;;5056296;28;20490;-62
2023/04/24 06:24:36;;;;;;;4.78;3.72;;;;;;;;;;5056225;28;20032;-62
2023/04/24 06:27:01;;;;;;;4.20;3.80;;;;;;;;;;5056218;28;20068;-62
2023/04/24 06:29:27;;;;;;;4.72;3.97;;;;;;;;;;5055858;28;20050;-62
2023/04/24 06:31:52;;;;;;;5.38;3.70;;;;;;;;;;5074595;28;20059;-62
2023/04/24 06:34:17;;;;;;;6.00;3.45;;;;;;;;;;5056136;28;20051;-62
2023/04/24 06:36:43;;;;;;;4.53;4.13;;;;;;;;;;5056120;28;20032;-62
2023/04/24 06:39:08;;;;;;;6.10;4.90;;;;;;;;;;5074521;28;20510;-62
2023/04/24 06:41:34;;;;;;;6.28;3.80;;;;;;;;;;5056034;28;20391;-62
2023/04/24 06:43:59;;;;;;;6.13;3.88;;;;;;;;;;5073919;28;20077;-62
2023/04/24 06:46:27;;;;;;;5.45;4.00;;;;;;;;;;5055792;28;20035;-62
2023/04/24 06:48:56;;;;;;;21.52;7.75;;;;;;;;;;5073828;28;20028;-62
2023/04/24 06:51:25;;;;;;;63.95;13.13;;;;;;;;;;5074097;28;20028;-62
2023/04/24 06:53:51;;;;;;;10.77;5.20;;;;;;;;;;5073717;28;20048;-62
2023/04/24 06:56:16;;;;;;;29.95;7.95;;;;;;;;;;5073706;28;20115;-62
2023/04/24 06:58:42;;;;;;;18.02;5.57;;;;;;;;;;5073740;28;20020;-62
2023/04/24 07:01:07;;;;;;;5.85;3.42;;;;;;;;;;5073627;28;20115;-62
2023/04/24 07:03:32;;;;;;;3.08;2.85;;;;;;;;;;5074224;28;20028;-62
2023/04/24 07:05:58;;;;;;;2.95;2.75;;;;;;;;;;5073586;28;20025;-62
2023/04/24 07:08:23;;;;;;;20.38;6.32;;;;;;;;;;5073668;28;20016;-62
2023/04/24 07:10:50;;;;;;;4.07;3.67;;;;;;;;;;5073809;28;20535;-62
2023/04/24 07:13:15;;;;;;;3.50;3.17;;;;;;;;;;5055709;28;20020;-62
2023/04/24 07:15:41;;;;;;;4.38;3.30;;;;;;;;;;5073533;28;20096;-62
2023/04/24 07:18:06;;;;;;;3.45;3.25;;;;;;;;;;5056181;28;20115;-62
2023/04/24 07:20:32;;;;;;;3.13;2.65;;;;;;;;;;5073789;28;20082;-62
2023/04/24 07:22:58;;;;;;;3.40;3.05;;;;;;;;;;5073759;28;20075;-62
2023/04/24 07:25:23;;;;;;;2.92;2.72;;;;;;;;;;5073969;28;20425;-62
2023/04/24 07:27:48;;;;;;;3.90;3.50;;;;;;;;;;5073431;28;20447;-62
2023/04/24 07:30:15;;;;;;;3.65;3.35;;;;;;;;;;5073730;28;20041;-62
2023/04/24 07:32:40;;;;;;;4.53;3.35;;;;;;;;;;5073716;28;20040;-62
2023/04/24 07:35:06;;;;;;;4.30;3.08;;;;;;;;;;5073356;28;20029;-62
2023/04/24 07:37:33;;;;;;;2.97;2.78;;;;;;;;;;5073363;28;20058;-62
2023/04/24 07:39:58;;;;;;;2.63;2.42;;;;;;;;;;5055752;28;20047;-62
2023/04/24 07:42:24;;;;;;;3.80;2.78;;;;;;;;;;5077294;28;20055;-62
2023/04/24 07:44:49;;;;;;;2.85;2.67;;;;;;;;;;5059387;28;20064;-62
2023/04/24 07:47:17;;;;;;;3.45;2.85;;;;;;;;;;5077126;28;20104;-62
2023/04/24 07:49:42;;;;;;;3.00;2.80;;;;;;;;;;5077728;28;20114;-62
2023/04/24 07:52:10;;;;;;;3.35;3.05;;;;;;;;;;5077130;28;20048;-62
2023/04/24 07:54:42;;;;;;;3.03;2.75;;;;;;;;;;5077921;28;20041;-62
2023/04/24 07:57:08;;;;;;;3.63;2.45;;;;;;;;;;5077289;28;20036;-62
2023/04/24 07:59:33;;;;;;;2.15;1.95;;;;;;;;;;5077272;28;20066;-62
2023/04/24 08:01:58;;;;;;;2.78;2.58;;;;;;;;;;5066958;23;20115;-62
2023/04/24 08:04:24;;;;;;;2.80;2.60;;;;;;;;;;5069424;23;20040;-62
2023/04/24 08:06:49;;;;;;;3.13;2.92;;;;;;;;;;5099304;22;20081;-56
2023/04/24 08:09:30;;;;;;;52.35;6.35;;;;;;;;;;5053733;22;20517;-62
2023/04/24 08:12:15;;;;;;;10.07;3.38;;;;;;;;;;5082862;23;20392;-62
2023/04/24 08:14:40;;;;;;;23.13;6.18;;;;;;;;;;5085662;22;20466;-56
2023/04/24 08:17:06;;;;;;;23.52;7.03;;;;;;;;;;5081811;22;20056;-56
2023/04/24 08:19:31;;;;;;;3.95;2.38;;;;;;;;;;5085259;23;20059;-62
2023/04/24 08:21:56;;;;;;;2.35;2.13;;;;;;;;;;5059061;28;20067;-62
2023/04/24 08:24:22;;;;;;;28.35;6.78;;;;;;;;;;5076447;28;20033;-62
2023/04/24 08:26:52;;;;;;;11.15;3.88;;;;;;;;;;5042193;28;20040;-62
2023/04/24 08:29:17;;;;;;;3.28;2.85;;;;;;;;;;5076990;28;20034;-62
2023/04/24 08:31:42;;;;;;;7.28;3.70;;;;;;;;;;5076353;28;20462;-62
2023/04/24 08:34:09;;;;;;;5.90;3.22;;;;;;;;;;5076375;28;20024;-62
2023/04/24 08:36:34;;;;;;;2.85;2.30;;;;;;;;;;5076551;28;20017;-62
2023/04/24 08:39:00;;;;;;;3.88;3.33;;;;;;;;;;5058307;28;20471;-62
2023/04/24 08:41:26;;;;;;;2.97;2.78;;;;;;;;;;5076231;28;20459;-62
2023/04/24 08:43:52;;;;;;;2.90;2.67;;;;;;;;;;5076656;28;20032;-62
2023/04/24 08:46:18;;;;;;;2.40;2.22;;;;;;;;;;5076065;28;20029;-62
2023/04/24 08:48:43;;;;;;;3.50;2.90;;;;;;;;;;5058241;28;20462;-62
2023/04/24 08:51:09;;;;;;;3.13;2.92;;;;;;;;;;5076014;28;20016;-62
2023/04/24 08:53:35;;;;;;;8.88;3.40;;;;;;;;;;5058452;28;20081;-62
2023/04/24 08:56:01;;;;;;;4.22;2.47;;;;;;;;;;5075933;28;20486;-62
2023/04/24 08:58:26;;;;;;;2.92;2.72;;;;;;;;;;5058355;28;20123;-62
2023/04/24 09:00:54;;;;;;;10.63;3.00;;;;;;;;;;5076424;28;20107;-62
2023/04/24 09:03:20;;;;;;;3.83;3.00;;;;;;;;;;5076114;28;20062;-62
2023/04/24 09:05:46;;;;;;;3.17;2.88;;;;;;;;;;5076000;28;20036;-62
2023/04/24 09:08:13;;;;;;;3.10;2.85;;;;;;;;;;5075988;28;20020;-56
2023/04/24 09:10:39;;;;;;;4.13;3.10;;;;;;;;;;5075685;28;20033;-56
2023/04/24 09:13:05;;;;;;;4.05;3.75;;;;;;;;;;5075945;28;20013;-56
2023/04/24 09:15:31;;;;;;;4.13;3.08;;;;;;;;;;5057994;28;20029;-56
2023/04/24 09:17:56;;;;;;;3.95;3.13;;;;;;;;;;5040997;28;20544;-56
2023/04/24 09:20:22;;;;;;;3.90;3.50;;;;;;;;;;5075407;28;20045;-56
2023/04/24 09:22:47;;;;;;;4.80;3.00;;;;;;;;;;5075471;28;20108;-56
2023/04/24 09:25:12;;;;;;;3.33;3.03;;;;;;;;;;5075691;28;20039;-56
2023/04/24 09:27:42;;;;;;;2.90;2.28;;;;;;;;;;5075542;28;20025;-56
2023/04/24 09:30:08;;;;;;;1.90;1.80;;;;;;;;;;5075588;28;20050;-56
2023/04/24 09:32:33;;;;;;;2.38;1.92;;;;;;;;;;5075259;28;20016;-56
2023/04/24 09:35:06;;;;;;;3.15;2.30;;;;;;;;;;5075470;28;20029;-56
2023/04/24 09:37:34;;;;;;;2.05;1.95;;;;;;;;;;5075409;28;20028;-56
2023/04/24 09:40:18;;;;;;;2.83;2.38;;;;;;;;;;5075379;28;20043;-56
2023/04/24 09:43:04;;;;;;;2.80;2.60;;;;;;;;;;5075614;28;20028;-56
2023/04/24 09:45:36;;;;;;;2.15;2.05;;;;;;;;;;5074282;28;20055;-56
2023/04/24 09:48:01;;;;;;;3.53;2.13;;;;;;;;;;5075185;28;20378;-56
2023/04/24 09:50:31;;;;;;;2.33;2.13;;;;;;;;;;5074870;28;20023;-56
2023/04/24 09:52:58;;;;;;;3.20;2.50;;;;;;;;;;5075145;28;20032;-56
2023/04/24 09:55:24;;;;;;;3.75;2.70;;;;;;;;;;5074751;28;20471;-56
2023/04/24 09:57:54;;;;;;;2.83;2.63;;;;;;;;;;5056852;28;20028;-56
2023/04/24 10:00:27;;;;;;;2.80;2.55;;;;;;;;;;5057117;28;20028;-56
2023/04/24 10:02:59;;;;;;;3.08;2.50;;;;;;;;;;5075044;28;20089;-56
2023/04/24 10:05:26;;;;;;;4.05;2.65;;;;;;;;;;5056309;28;20032;-56
2023/04/24 10:07:55;;;;;;;1.98;1.88;;;;;;;;;;5074810;28;20028;-56
2023/04/24 10:10:21;;;;;;;2.35;2.15;;;;;;;;;;5075006;28;20020;-56
2023/04/24 10:12:46;;;;;;;2.22;2.13;;;;;;;;;;5074710;28;20459;-56
2023/04/24 10:15:12;;;;;;;2.70;2.20;;;;;;;;;;5056835;28;20025;-56
2023/04/24 10:17:38;;;;;;;2.35;2.15;;;;;;;;;;5074613;28;20047;-56
2023/04/24 10:20:06;;;;;;;2.90;2.70;;;;;;;;;;5074134;28;20546;-56
2023/04/24 10:22:33;;;;;;;2.63;2.53;;;;;;;;;;5074499;28;20029;-56
2023/04/24 10:24:58;;;;;;;2.38;2.28;;;;;;;;;;5074485;28;20071;-56
2023/04/24 10:27:25;;;;;;;2.72;2.30;;;;;;;;;;5074097;28;20056;-56
2023/04/24 10:29:52;;;;;;;4.10;2.47;;;;;;;;;;5074121;28;20033;-56
2023/04/24 10:32:18;;;;;;;3.20;2.45;;;;;;;;;;5074357;28;20112;-56
2023/04/24 10:34:43;;;;;;;5.95;3.15;;;;;;;;;;5074321;28;20103;-56
2023/04/24 10:37:09;;;;;;;3.85;2.83;;;;;;;;;;5074013;28;20037;-56
2023/04/24 10:39:35;;;;;;;3.35;3.03;;;;;;;;;;5074289;28;20029;-56
2023/04/24 10:42:00;;;;;;;3.30;2.95;;;;;;;;;;5074256;28;20025;-56
2023/04/24 10:44:35;;;;;;;3.20;2.90;;;;;;;;;;5056078;28;20398;-56
2023/04/24 10:47:01;;;;;;;3.25;2.33;;;;;;;;;;5055908;28;20033;-56
2023/04/24 10:49:30;;;;;;;2.72;2.53;;;;;;;;;;5074123;28;20027;-56
2023/04/24 10:51:59;;;;;;;2.90;1.75;;;;;;;;;;5073874;28;20039;-56
2023/04/24 10:54:35;;;;;;;2.58;2.20;;;;;;;;;;5074389;28;20117;-56
2023/04/24 10:57:19;;;;;;;2.45;2.28;;;;;;;;;;5055760;28;20489;-56
2023/04/24 10:59:45;;;;;;;2.92;1.83;;;;;;;;;;5074050;28;20115;-56
2023/04/24 11:02:10;;;;;;;3.05;2.38;;;;;;;;;;5055755;28;20067;-59
2023/04/24 11:04:36;;;;;;;2.45;2.25;;;;;;;;;;5056111;28;20036;-56
2023/04/24 11:07:04;;;;;;;2.72;2.47;;;;;;;;;;5073592;28;20153;-55
2023/04/24 11:09:30;;;;;;;1.83;1.73;;;;;;;;;;5073916;28;20104;-56
2023/04/24 11:12:06;;;;;;;2.40;2.28;;;;;;;;;;5073650;28;20017;-56
2023/04/24 11:14:52;;;;;;;2.17;2.08;;;;;;;;;;5055482;28;20029;-56
2023/04/24 11:17:31;;;;;;;2.33;2.13;;;;;;;;;;5072957;28;20036;-62
2023/04/24 11:20:07;;;;;;;2.33;2.22;;;;;;;;;;5073538;28;20045;-62
2023/04/24 11:22:35;;;;;;;2.03;1.90;;;;;;;;;;5073625;28;20064;-62
2023/04/24 11:25:02;;;;;;;2.17;2.03;;;;;;;;;;5073780;28;20032;-62
2023/04/24 11:27:39;;;;;;;1.92;1.83;;;;;;;;;;5055495;28;20032;-62
2023/04/24 11:30:04;;;;;;;2.30;2.20;;;;;;;;;;5073450;28;20036;-62
2023/04/24 11:32:33;;;;;;;2.00;1.90;;;;;;;;;;5073967;28;20028;-62
2023/04/24 11:35:01;;;;;;;2.38;2.20;;;;;;;;;;5073655;28;20033;-62
2023/04/24 11:37:33;;;;;;;2.40;2.20;;;;;;;;;;5073641;28;20409;-62
2023/04/24 11:39:58;;;;;;;2.60;2.10;;;;;;;;;;5055358;28;20496;-62
2023/04/24 11:42:25;;;;;;;1.95;1.85;;;;;;;;;;5073271;28;20020;-62
2023/04/24 11:44:52;;;;;;;2.25;2.15;;;;;;;;;;5073851;28;20075;-62
2023/04/24 11:47:17;;;;;;;1.88;1.77;;;;;;;;;;5073490;28;20025;-62
2023/04/24 11:49:43;;;;;;;2.05;1.95;;;;;;;;;;5073275;28;20075;-62
2023/04/24 11:52:08;;;;;;;2.13;2.03;;;;;;;;;;5073517;28;20030;-62
2023/04/24 11:54:34;;;;;;;2.35;1.98;;;;;;;;;;5055229;28;20039;-62
2023/04/24 11:57:03;;;;;;;4.28;1.83;;;;;;;;;;5055330;28;20036;-62
2023/04/24 11:59:28;;;;;;;2.15;2.05;;;;;;;;;;5073165;28;20090;-62
2023/04/24 12:01:54;;;;;;;3.55;2.13;;;;;;;;;;5073144;28;20524;-62
2023/04/24 12:04:19;;;;;;;2.47;2.38;;;;;;;;;;5073334;28;20021;-62
2023/04/24 12:07:03;;;;;;;2.33;2.15;;;;;;;;;;5073305;28;20036;-62
2023/04/24 12:09:28;;;;;;;2.42;2.28;;;;;;;;;;5073314;28;20024;-62
2023/04/24 12:11:57;;;;;;;4.53;3.00;;;;;;;;;;5073066;28;20378;-62
2023/04/24 12:14:23;;;;;;;3.78;3.03;;;;;;;;;;5055373;28;20455;-62
2023/04/24 12:16:49;;;;;;;3.22;2.88;;;;;;;;;;5055036;28;20044;-62
2023/04/24 12:19:20;;;;;;;3.33;3.03;;;;;;;;;;5072811;28;20437;-62
2023/04/24 12:21:46;;;;;;;;;;;;;;;;;;5073940;28;20086;-62
2023/04/24 12:24:11;;;;;;;1.98;1.85;;;;;;;;;;5073164;28;19949;-62
2023/04/24 12:26:36;;;;;;;2.67;2.47;;;;;;;;;;5073547;28;20033;-62
2023/04/24 12:29:03;;;;;;;3.20;2.78;;;;;;;;;;5076443;28;20101;-62
2023/04/24 12:31:30;;;;;;;3.30;2.45;;;;;;;;;;5076714;28;20064;-62
2023/04/24 12:33:55;;;;;;;4.13;2.30;;;;;;;;;;5076660;28;20481;-62
2023/04/24 12:36:21;;;;;;;3.65;2.83;;;;;;;;;;5076317;28;20111;-62
2023/04/24 12:38:46;;;;;;;3.97;3.00;;;;;;;;;;5076600;28;20030;-62
2023/04/24 12:41:12;;;;;;;3.78;3.08;;;;;;;;;;5076230;28;20485;-62
2023/04/24 12:43:38;;;;;;;5.15;3.03;;;;;;;;;;5076246;28;20498;-62
2023/04/24 12:46:04;;;;;;;2.88;2.67;;;;;;;;;;5076385;28;20024;-62
2023/04/24 12:48:30;;;;;;;3.40;3.13;;;;;;;;;;5058241;28;20056;-61
2023/04/24 12:51:01;;;;;;;3.47;3.17;;;;;;;;;;5076362;28;20105;-62
2023/04/24 12:53:28;;;;;;;3.30;3.00;;;;;;;;;;5076587;28;20035;-62
2023/04/24 12:55:53;;;;;;;3.35;2.95;;;;;;;;;;5076310;28;20024;-62
2023/04/24 12:58:19;;;;;;;3.33;3.00;;;;;;;;;;5075928;28;20119;-62
2023/04/24 13:00:45;;;;;;;4.13;2.90;;;;;;;;;;5076166;28;20040;-61
2023/04/24 13:03:11;;;;;;;2.13;1.60;;;;;;;;;;5075821;28;20033;-62
2023/04/24 13:05:36;;;;;;;16.27;3.67;;;;;;;;;;5057786;28;20115;-62
2023/04/24 13:08:02;;;;;;;4.30;3.03;;;;;;;;;;5076200;28;20028;-62
2023/04/24 13:10:27;;;;;;;3.80;2.67;;;;;;;;;;5057506;28;20029;-62
2023/04/24 13:12:52;;;;;;;1.10;1.10;;;;;;;;;;5074043;28;20028;-62
2023/04/24 13:15:18;;;;;;;1.23;1.15;;;;;;;;;;5066154;28;20044;-62
2023/04/24 13:17:43;;;;;;;3.60;2.75;;;;;;;;;;5043684;28;20032;-62
2023/04/24 13:20:08;;;;;;;4.40;2.63;;;;;;;;;;5062647;28;21011;-56
2023/04/24 13:22:34;;;;;;;0.80;0.80;;;;;;;;;;5068523;28;20394;-56
2023/04/24 13:24:59;;;;;;;1.20;1.02;;;;;;;;;;5060047;28;20037;-56
2023/04/24 13:27:24;;;;;;;1.77;1.55;;;;;;;;;;5060481;28;20027;-56
2023/04/24 13:29:51;;;;;;;3.88;2.13;;;;;;;;;;5045191;28;20037;-62
2023/04/24 13:32:16;;;;;;;7.30;2.92;;;;;;;;;;5061530;28;20535;-56
2023/04/24 13:34:42;;;;;;;1.48;1.38;;;;;;;;;;5054680;28;20025;-56
2023/04/24 13:37:08;;;;;;;1.90;1.80;;;;;;;;;;5064380;28;20475;-55
2023/04/24 13:39:33;;;;;;;2.70;2.60;;;;;;;;;;5070682;28;20025;-62
2023/04/24 13:41:58;;;;;;;1.55;1.45;;;;;;;;;;5061778;28;20140;-62
2023/04/24 13:44:25;;;;;;;1.17;1.15;;;;;;;;;;5063607;28;20029;-56
2023/04/24 13:46:52;;;;;;;2.90;2.03;;;;;;;;;;5064473;28;20115;-56
2023/04/24 13:49:17;;;;;;;2.30;2.13;;;;;;;;;;5064058;28;20029;-55
2023/04/24 13:51:43;;;;;;;2.80;2.47;;;;;;;;;;5061994;28;20024;-55
2023/04/24 13:54:08;;;;;;;2.92;2.72;;;;;;;;;;5046838;28;20433;-56
2023/04/24 13:56:34;;;;;;;3.00;2.80;;;;;;;;;;5041420;28;20027;-62
2023/04/24 13:59:00;;;;;;;2.83;2.72;;;;;;;;;;5059536;28;20033;-61
2023/04/24 14:01:25;;;;;;;2.90;2.70;;;;;;;;;;5054401;28;20029;-61
2023/04/24 14:03:55;;;;;;;3.22;2.55;;;;;;;;;;5054522;28;20478;-61
2023/04/24 14:06:21;;;;;;;3.08;2.50;;;;;;;;;;5054287;28;20053;-61
2023/04/24 14:08:47;;;;;;;2.25;2.15;;;;;;;;;;5062093;28;20475;-56
2023/04/24 14:11:12;;;;;;;2.55;2.35;;;;;;;;;;5062949;28;20142;-56
2023/04/24 14:13:38;;;;;;;2.88;2.15;;;;;;;;;;5063693;28;20043;-56
2023/04/24 14:16:04;;;;;;;2.85;2.53;;;;;;;;;;5043949;28;20487;-56
2023/04/24 14:18:29;;;;;;;3.00;2.42;;;;;;;;;;5062337;28;20029;-56
2023/04/24 14:20:55;;;;;;;2.30;2.20;;;;;;;;;;5061291;28;20043;-61
2023/04/24 14:23:20;;;;;;;2.25;2.15;;;;;;;;;;5061781;28;20021;-55
2023/04/24 14:25:45;;;;;;;1.80;1.70;;;;;;;;;;5064166;28;20471;-55
2023/04/24 14:28:11;;;;;;;2.20;2.05;;;;;;;;;;5063970;28;20124;-56
2023/04/24 14:30:37;;;;;;;2.80;2.60;;;;;;;;;;5063332;28;20036;-55
2023/04/24 14:33:03;;;;;;;2.67;2.17;;;;;;;;;;5044330;28;20051;-56
2023/04/24 14:35:31;;;;;;;2.55;2.35;;;;;;;;;;5064267;28;20340;-56
2023/04/24 14:37:56;;;;;;;2.92;2.72;;;;;;;;;;5046326;28;20531;-56